sensor_id;sensor_type;location;lat;lon;timestamp;P1;durP1;ratioP1;P2;durP2;ratioP2
44862;SDS011;30597;49.628;10.850;2023-08-06T00:00:02;1.40;;;1.30;;
44862;SDS011;30597;49.628;10.850;2023-08-06T00:02:28;2.30;;;1.57;;
44862;SDS011;30597;49.628;10.850;2023-08-06T00:04:54;2.23;;;1.87;;
44862;SDS011;30597;49.628;10.850;2023-08-06T00:07:20;2.23;;;1.70;;
44862;SDS011;30597;49.628;10.850;2023-08-06T00:09:45;1.57;;;1.40;;
44862;SDS011;30597;49.628;10.850;2023-08-06T00:12:11;2.00;;;1.80;;
44862;SDS011;30597;49.628;10.850;2023-08-06T00:14:36;2.00;;;1.70;;
44862;SDS011;30597;49.628;10.850;2023-08-06T00:17:02;2.47;;;1.73;;
44862;SDS011;30597;49.628;10.850;2023-08-06T00:19:28;1.27;;;1.17;;
44862;SDS011;30597;49.628;10.850;2023-08-06T00:21:54;3.93;;;1.67;;
44862;SDS011;30597;49.628;10.850;2023-08-06T00:24:19;2.00;;;1.53;;
44862;SDS011;30597;49.628;10.850;2023-08-06T00:26:45;1.50;;;1.37;;
44862;SDS011;30597;49.628;10.850;2023-08-06T00:29:10;1.97;;;1.43;;
44862;SDS011;30597;49.628;10.850;2023-08-06T00:31:36;1.70;;;1.60;;
44862;SDS011;30597;49.628;10.850;2023-08-06T00:34:01;1.40;;;1.30;;
44862;SDS011;30597;49.628;10.850;2023-08-06T00:36:27;1.60;;;1.50;;
44862;SDS011;30597;49.628;10.850;2023-08-06T00:38:52;1.50;;;1.40;;
44862;SDS011;30597;49.628;10.850;2023-08-06T00:41:18;1.90;;;1.80;;
44862;SDS011;30597;49.628;10.850;2023-08-06T00:43:43;2.47;;;1.83;;
44862;SDS011;30597;49.628;10.850;2023-08-06T00:46:09;1.40;;;1.30;;
44862;SDS011;30597;49.628;10.850;2023-08-06T00:48:35;2.50;;;1.40;;
44862;SDS011;30597;49.628;10.850;2023-08-06T00:51:01;1.37;;;1.17;;
44862;SDS011;30597;49.628;10.850;2023-08-06T00:53:27;4.47;;;1.50;;
44862;SDS011;30597;49.628;10.850;2023-08-06T00:55:52;2.33;;;1.70;;
44862;SDS011;30597;49.628;10.850;2023-08-06T00:58:18;1.80;;;1.70;;
44862;SDS011;30597;49.628;10.850;2023-08-06T01:00:44;1.43;;;1.33;;
44862;SDS011;30597;49.628;10.850;2023-08-06T01:03:10;1.97;;;1.70;;
44862;SDS011;30597;49.628;10.850;2023-08-06T01:05:36;1.60;;;1.50;;
44862;SDS011;30597;49.628;10.850;2023-08-06T01:10:44;1.37;;;1.27;;
44862;SDS011;30597;49.628;10.850;2023-08-06T01:13:16;1.67;;;1.20;;
44862;SDS011;30597;49.628;10.850;2023-08-06T01:15:50;1.60;;;1.50;;
44862;SDS011;30597;49.628;10.850;2023-08-06T01:18:23;1.70;;;1.50;;
44862;SDS011;30597;49.628;10.850;2023-08-06T01:20:49;1.50;;;1.40;;
44862;SDS011;30597;49.628;10.850;2023-08-06T01:23:17;1.57;;;1.47;;
44862;SDS011;30597;49.628;10.850;2023-08-06T01:31:36;2.03;;;1.10;;
44862;SDS011;30597;49.628;10.850;2023-08-06T01:34:03;1.20;;;1.10;;
44862;SDS011;30597;49.628;10.850;2023-08-06T01:36:32;1.57;;;1.30;;
44862;SDS011;30597;49.628;10.850;2023-08-06T01:38:57;1.50;;;1.40;;
44862;SDS011;30597;49.628;10.850;2023-08-06T01:41:23;1.23;;;1.13;;
44862;SDS011;30597;49.628;10.850;2023-08-06T01:43:49;1.67;;;1.57;;
44862;SDS011;30597;49.628;10.850;2023-08-06T01:46:14;1.47;;;1.37;;
44862;SDS011;30597;49.628;10.850;2023-08-06T01:48:40;1.63;;;1.53;;
44862;SDS011;30597;49.628;10.850;2023-08-06T01:51:06;1.30;;;1.20;;
44862;SDS011;30597;49.628;10.850;2023-08-06T01:53:31;1.83;;;1.13;;
44862;SDS011;30597;49.628;10.850;2023-08-06T01:55:58;1.40;;;1.30;;
44862;SDS011;30597;49.628;10.850;2023-08-06T01:58:23;1.63;;;1.13;;
44862;SDS011;30597;49.628;10.850;2023-08-06T02:00:49;1.40;;;1.20;;
44862;SDS011;30597;49.628;10.850;2023-08-06T02:03:14;1.53;;;1.43;;
44862;SDS011;30597;49.628;10.850;2023-08-06T02:05:40;1.33;;;1.23;;
44862;SDS011;30597;49.628;10.850;2023-08-06T02:08:06;2.07;;;1.87;;
44862;SDS011;30597;49.628;10.850;2023-08-06T02:10:32;2.23;;;1.50;;
44862;SDS011;30597;49.628;10.850;2023-08-06T02:12:57;1.40;;;1.30;;
44862;SDS011;30597;49.628;10.850;2023-08-06T02:15:23;2.00;;;1.40;;
44862;SDS011;30597;49.628;10.850;2023-08-06T02:17:48;1.50;;;1.40;;
44862;SDS011;30597;49.628;10.850;2023-08-06T02:20:14;1.37;;;1.27;;
44862;SDS011;30597;49.628;10.850;2023-08-06T02:22:40;1.40;;;1.30;;
44862;SDS011;30597;49.628;10.850;2023-08-06T02:25:05;1.97;;;1.17;;
44862;SDS011;30597;49.628;10.850;2023-08-06T02:27:31;1.80;;;1.70;;
44862;SDS011;30597;49.628;10.850;2023-08-06T02:29:57;1.63;;;1.37;;
44862;SDS011;30597;49.628;10.850;2023-08-06T02:32:22;1.23;;;1.13;;
44862;SDS011;30597;49.628;10.850;2023-08-06T02:34:48;1.23;;;1.00;;
44862;SDS011;30597;49.628;10.850;2023-08-06T02:37:13;1.53;;;1.43;;
44862;SDS011;30597;49.628;10.850;2023-08-06T02:39:39;1.20;;;1.10;;
44862;SDS011;30597;49.628;10.850;2023-08-06T02:42:08;1.83;;;1.40;;
44862;SDS011;30597;49.628;10.850;2023-08-06T02:44:33;1.20;;;1.10;;
44862;SDS011;30597;49.628;10.850;2023-08-06T02:47:00;1.40;;;1.30;;
44862;SDS011;30597;49.628;10.850;2023-08-06T02:49:26;1.47;;;1.37;;
44862;SDS011;30597;49.628;10.850;2023-08-06T02:51:51;1.20;;;1.10;;
44862;SDS011;30597;49.628;10.850;2023-08-06T02:54:17;1.63;;;1.33;;
44862;SDS011;30597;49.628;10.850;2023-08-06T02:56:44;1.07;;;0.97;;
44862;SDS011;30597;49.628;10.850;2023-08-06T02:59:10;1.73;;;1.40;;
44862;SDS011;30597;49.628;10.850;2023-08-06T03:01:36;1.57;;;1.23;;
44862;SDS011;30597;49.628;10.850;2023-08-06T03:04:02;1.43;;;1.33;;
44862;SDS011;30597;49.628;10.850;2023-08-06T03:06:28;1.33;;;1.23;;
44862;SDS011;30597;49.628;10.850;2023-08-06T03:08:54;1.17;;;1.03;;
44862;SDS011;30597;49.628;10.850;2023-08-06T03:11:19;1.37;;;1.27;;
44862;SDS011;30597;49.628;10.850;2023-08-06T03:13:45;1.10;;;1.00;;
44862;SDS011;30597;49.628;10.850;2023-08-06T03:16:14;1.27;;;1.17;;
44862;SDS011;30597;49.628;10.850;2023-08-06T03:18:40;1.40;;;1.30;;
44862;SDS011;30597;49.628;10.850;2023-08-06T03:21:06;1.60;;;1.40;;
44862;SDS011;30597;49.628;10.850;2023-08-06T03:23:32;1.73;;;1.30;;
44862;SDS011;30597;49.628;10.850;2023-08-06T03:26:03;1.10;;;1.00;;
44862;SDS011;30597;49.628;10.850;2023-08-06T03:28:29;1.20;;;1.10;;
44862;SDS011;30597;49.628;10.850;2023-08-06T03:30:58;1.53;;;1.43;;
44862;SDS011;30597;49.628;10.850;2023-08-06T03:33:25;2.20;;;1.57;;
44862;SDS011;30597;49.628;10.850;2023-08-06T03:35:50;1.50;;;1.40;;
44862;SDS011;30597;49.628;10.850;2023-08-06T03:38:16;1.20;;;1.10;;
44862;SDS011;30597;49.628;10.850;2023-08-06T03:40:42;1.47;;;1.30;;
44862;SDS011;30597;49.628;10.850;2023-08-06T03:43:08;1.50;;;1.40;;
44862;SDS011;30597;49.628;10.850;2023-08-06T03:45:33;1.40;;;1.30;;
44862;SDS011;30597;49.628;10.850;2023-08-06T03:47:59;1.70;;;1.60;;
44862;SDS011;30597;49.628;10.850;2023-08-06T03:50:24;2.40;;;0.97;;
44862;SDS011;30597;49.628;10.850;2023-08-06T03:52:50;1.20;;;1.10;;
44862;SDS011;30597;49.628;10.850;2023-08-06T03:55:15;1.87;;;1.53;;
44862;SDS011;30597;49.628;10.850;2023-08-06T03:57:41;1.57;;;1.27;;
44862;SDS011;30597;49.628;10.850;2023-08-06T04:00:07;1.63;;;1.53;;
44862;SDS011;30597;49.628;10.850;2023-08-06T04:02:33;1.60;;;1.50;;
44862;SDS011;30597;49.628;10.850;2023-08-06T04:04:58;1.37;;;1.27;;
44862;SDS011;30597;49.628;10.850;2023-08-06T04:07:24;2.23;;;1.13;;
44862;SDS011;30597;49.628;10.850;2023-08-06T04:09:59;1.20;;;1.10;;
44862;SDS011;30597;49.628;10.850;2023-08-06T04:12:26;1.60;;;1.00;;
44862;SDS011;30597;49.628;10.850;2023-08-06T04:14:52;0.93;;;0.80;;
44862;SDS011;30597;49.628;10.850;2023-08-06T04:17:18;1.20;;;1.10;;
44862;SDS011;30597;49.628;10.850;2023-08-06T04:19:51;1.63;;;1.50;;
44862;SDS011;30597;49.628;10.850;2023-08-06T04:22:18;1.13;;;0.97;;
44862;SDS011;30597;49.628;10.850;2023-08-06T04:24:43;2.30;;;1.30;;
44862;SDS011;30597;49.628;10.850;2023-08-06T04:27:10;1.20;;;1.10;;
44862;SDS011;30597;49.628;10.850;2023-08-06T04:29:36;2.60;;;2.40;;
44862;SDS011;30597;49.628;10.850;2023-08-06T04:32:03;1.17;;;1.07;;
44862;SDS011;30597;49.628;10.850;2023-08-06T04:34:31;1.20;;;1.10;;
44862;SDS011;30597;49.628;10.850;2023-08-06T04:36:56;1.10;;;1.00;;
44862;SDS011;30597;49.628;10.850;2023-08-06T04:39:23;1.20;;;1.10;;
44862;SDS011;30597;49.628;10.850;2023-08-06T04:41:49;1.40;;;1.30;;
44862;SDS011;30597;49.628;10.850;2023-08-06T04:44:14;1.20;;;1.10;;
44862;SDS011;30597;49.628;10.850;2023-08-06T04:46:40;1.57;;;1.10;;
44862;SDS011;30597;49.628;10.850;2023-08-06T04:49:05;1.40;;;1.20;;
44862;SDS011;30597;49.628;10.850;2023-08-06T04:51:31;1.30;;;1.00;;
44862;SDS011;30597;49.628;10.850;2023-08-06T04:53:57;2.37;;;1.00;;
44862;SDS011;30597;49.628;10.850;2023-08-06T04:56:22;1.30;;;1.20;;
44862;SDS011;30597;49.628;10.850;2023-08-06T04:58:48;1.40;;;1.27;;
44862;SDS011;30597;49.628;10.850;2023-08-06T05:01:14;1.30;;;1.20;;
44862;SDS011;30597;49.628;10.850;2023-08-06T05:03:39;0.97;;;0.87;;
44862;SDS011;30597;49.628;10.850;2023-08-06T05:06:05;1.53;;;1.10;;
44862;SDS011;30597;49.628;10.850;2023-08-06T05:08:30;1.60;;;1.07;;
44862;SDS011;30597;49.628;10.850;2023-08-06T05:10:56;1.47;;;1.10;;
44862;SDS011;30597;49.628;10.850;2023-08-06T05:13:22;1.97;;;1.53;;
44862;SDS011;30597;49.628;10.850;2023-08-06T05:15:48;0.80;;;0.73;;
44862;SDS011;30597;49.628;10.850;2023-08-06T05:18:14;1.20;;;1.10;;
44862;SDS011;30597;49.628;10.850;2023-08-06T05:20:40;1.43;;;1.10;;
44862;SDS011;30597;49.628;10.850;2023-08-06T05:23:06;2.80;;;2.00;;
44862;SDS011;30597;49.628;10.850;2023-08-06T05:25:34;1.67;;;1.50;;
44862;SDS011;30597;49.628;10.850;2023-08-06T05:27:59;1.17;;;1.00;;
44862;SDS011;30597;49.628;10.850;2023-08-06T05:30:26;1.50;;;1.30;;
44862;SDS011;30597;49.628;10.850;2023-08-06T05:32:52;1.53;;;1.40;;
44862;SDS011;30597;49.628;10.850;2023-08-06T05:35:17;2.57;;;1.20;;
44862;SDS011;30597;49.628;10.850;2023-08-06T05:37:43;2.50;;;1.03;;
44862;SDS011;30597;49.628;10.850;2023-08-06T05:40:09;1.40;;;1.13;;
44862;SDS011;30597;49.628;10.850;2023-08-06T05:42:34;1.73;;;1.10;;
44862;SDS011;30597;49.628;10.850;2023-08-06T05:45:00;1.20;;;1.10;;
44862;SDS011;30597;49.628;10.850;2023-08-06T05:47:25;2.30;;;1.07;;
44862;SDS011;30597;49.628;10.850;2023-08-06T05:49:51;1.60;;;1.43;;
44862;SDS011;30597;49.628;10.850;2023-08-06T05:52:16;1.20;;;1.10;;
44862;SDS011;30597;49.628;10.850;2023-08-06T05:54:42;1.60;;;1.50;;
44862;SDS011;30597;49.628;10.850;2023-08-06T05:57:07;1.40;;;1.30;;
44862;SDS011;30597;49.628;10.850;2023-08-06T05:59:33;1.60;;;1.30;;
44862;SDS011;30597;49.628;10.850;2023-08-06T06:01:59;1.27;;;1.17;;
44862;SDS011;30597;49.628;10.850;2023-08-06T06:04:24;1.40;;;1.23;;
44862;SDS011;30597;49.628;10.850;2023-08-06T06:06:50;2.33;;;1.73;;
44862;SDS011;30597;49.628;10.850;2023-08-06T06:09:15;3.83;;;2.10;;
44862;SDS011;30597;49.628;10.850;2023-08-06T06:11:41;2.30;;;2.10;;
44862;SDS011;30597;49.628;10.850;2023-08-06T06:14:07;1.77;;;1.67;;
44862;SDS011;30597;49.628;10.850;2023-08-06T06:16:32;2.20;;;1.97;;
44862;SDS011;30597;49.628;10.850;2023-08-06T06:18:59;1.87;;;1.77;;
44862;SDS011;30597;49.628;10.850;2023-08-06T06:21:24;1.90;;;1.60;;
44862;SDS011;30597;49.628;10.850;2023-08-06T06:23:50;1.30;;;1.20;;
44862;SDS011;30597;49.628;10.850;2023-08-06T06:26:16;1.70;;;1.60;;
44862;SDS011;30597;49.628;10.850;2023-08-06T06:28:43;1.83;;;1.50;;
44862;SDS011;30597;49.628;10.850;2023-08-06T06:31:08;2.47;;;1.40;;
44862;SDS011;30597;49.628;10.850;2023-08-06T06:33:34;1.80;;;1.70;;
44862;SDS011;30597;49.628;10.850;2023-08-06T06:36:00;1.67;;;1.57;;
44862;SDS011;30597;49.628;10.850;2023-08-06T06:38:28;3.00;;;2.30;;
44862;SDS011;30597;49.628;10.850;2023-08-06T06:40:54;2.00;;;1.80;;
44862;SDS011;30597;49.628;10.850;2023-08-06T06:43:20;2.07;;;1.87;;
44862;SDS011;30597;49.628;10.850;2023-08-06T06:45:46;3.07;;;2.23;;
44862;SDS011;30597;49.628;10.850;2023-08-06T06:48:11;2.13;;;1.93;;
44862;SDS011;30597;49.628;10.850;2023-08-06T06:50:37;2.27;;;1.70;;
44862;SDS011;30597;49.628;10.850;2023-08-06T06:53:04;2.03;;;1.83;;
44862;SDS011;30597;49.628;10.850;2023-08-06T06:55:29;4.70;;;2.43;;
44862;SDS011;30597;49.628;10.850;2023-08-06T06:57:55;2.80;;;2.60;;
44862;SDS011;30597;49.628;10.850;2023-08-06T07:00:20;2.83;;;1.97;;
44862;SDS011;30597;49.628;10.850;2023-08-06T07:02:46;2.53;;;2.30;;
44862;SDS011;30597;49.628;10.850;2023-08-06T07:05:12;1.93;;;1.80;;
44862;SDS011;30597;49.628;10.850;2023-08-06T07:07:37;2.10;;;2.00;;
44862;SDS011;30597;49.628;10.850;2023-08-06T07:10:03;2.23;;;2.03;;
44862;SDS011;30597;49.628;10.850;2023-08-06T07:12:29;2.10;;;1.93;;
44862;SDS011;30597;49.628;10.850;2023-08-06T07:14:54;2.77;;;2.57;;
44862;SDS011;30597;49.628;10.850;2023-08-06T07:17:20;1.90;;;1.80;;
44862;SDS011;30597;49.628;10.850;2023-08-06T07:19:45;2.40;;;2.20;;
44862;SDS011;30597;49.628;10.850;2023-08-06T07:22:11;2.20;;;2.00;;
44862;SDS011;30597;49.628;10.850;2023-08-06T07:24:37;3.30;;;2.67;;
44862;SDS011;30597;49.628;10.850;2023-08-06T07:27:02;2.07;;;1.87;;
44862;SDS011;30597;49.628;10.850;2023-08-06T07:29:28;2.50;;;2.30;;
44862;SDS011;30597;49.628;10.850;2023-08-06T07:31:53;2.23;;;2.03;;
44862;SDS011;30597;49.628;10.850;2023-08-06T07:34:20;2.77;;;2.57;;
44862;SDS011;30597;49.628;10.850;2023-08-06T07:36:46;2.70;;;2.50;;
44862;SDS011;30597;49.628;10.850;2023-08-06T07:39:12;2.40;;;2.13;;
44862;SDS011;30597;49.628;10.850;2023-08-06T07:41:37;2.37;;;2.17;;
44862;SDS011;30597;49.628;10.850;2023-08-06T07:44:03;2.77;;;2.57;;
44862;SDS011;30597;49.628;10.850;2023-08-06T07:46:29;2.77;;;2.57;;
44862;SDS011;30597;49.628;10.850;2023-08-06T07:48:54;2.50;;;2.30;;
44862;SDS011;30597;49.628;10.850;2023-08-06T07:51:20;5.00;;;2.70;;
44862;SDS011;30597;49.628;10.850;2023-08-06T07:53:45;3.10;;;2.80;;
44862;SDS011;30597;49.628;10.850;2023-08-06T07:56:12;3.10;;;2.27;;
44862;SDS011;30597;49.628;10.850;2023-08-06T07:58:37;2.70;;;2.50;;
44862;SDS011;30597;49.628;10.850;2023-08-06T08:01:03;2.40;;;2.20;;
44862;SDS011;30597;49.628;10.850;2023-08-06T08:03:28;2.77;;;2.57;;
44862;SDS011;30597;49.628;10.850;2023-08-06T09:23:56;5.00;;;2.90;;
44862;SDS011;30597;49.628;10.850;2023-08-06T09:26:24;3.00;;;2.63;;
44862;SDS011;30597;49.628;10.850;2023-08-06T09:28:49;4.40;;;2.53;;
44862;SDS011;30597;49.628;10.850;2023-08-06T09:31:17;3.23;;;2.53;;
44862;SDS011;30597;49.628;10.850;2023-08-06T09:33:43;3.83;;;3.20;;
44862;SDS011;30597;49.628;10.850;2023-08-06T09:36:10;2.57;;;2.37;;
44862;SDS011;30597;49.628;10.850;2023-08-06T09:38:39;4.83;;;2.90;;
44862;SDS011;30597;49.628;10.850;2023-08-06T09:41:05;4.67;;;2.60;;
44862;SDS011;30597;49.628;10.850;2023-08-06T09:43:41;2.57;;;2.37;;
44862;SDS011;30597;49.628;10.850;2023-08-06T09:46:11;3.03;;;2.20;;
44862;SDS011;30597;49.628;10.850;2023-08-06T09:48:44;3.03;;;2.30;;
44862;SDS011;30597;49.628;10.850;2023-08-06T09:51:10;3.60;;;2.40;;
44862;SDS011;30597;49.628;10.850;2023-08-06T09:53:38;5.37;;;3.07;;
44862;SDS011;30597;49.628;10.850;2023-08-06T09:56:05;2.77;;;2.00;;
44862;SDS011;30597;49.628;10.850;2023-08-06T09:58:31;4.33;;;2.87;;
44862;SDS011;30597;49.628;10.850;2023-08-06T10:00:58;5.40;;;2.60;;
44862;SDS011;30597;49.628;10.850;2023-08-06T10:03:25;4.07;;;2.57;;
44862;SDS011;30597;49.628;10.850;2023-08-06T10:05:50;3.67;;;2.83;;
44862;SDS011;30597;49.628;10.850;2023-08-06T10:08:16;3.50;;;2.37;;
44862;SDS011;30597;49.628;10.850;2023-08-06T10:10:42;2.90;;;2.60;;
44862;SDS011;30597;49.628;10.850;2023-08-06T10:13:09;2.90;;;2.47;;
44862;SDS011;30597;49.628;10.850;2023-08-06T10:15:35;5.13;;;2.83;;
44862;SDS011;30597;49.628;10.850;2023-08-06T10:18:03;4.23;;;2.63;;
44862;SDS011;30597;49.628;10.850;2023-08-06T10:20:34;3.60;;;2.40;;
44862;SDS011;30597;49.628;10.850;2023-08-06T10:23:04;2.97;;;2.53;;
44862;SDS011;30597;49.628;10.850;2023-08-06T10:25:31;3.00;;;2.70;;
44862;SDS011;30597;49.628;10.850;2023-08-06T10:28:01;2.60;;;2.37;;
44862;SDS011;30597;49.628;10.850;2023-08-06T10:30:34;3.40;;;2.50;;
44862;SDS011;30597;49.628;10.850;2023-08-06T10:33:07;3.00;;;2.10;;
44862;SDS011;30597;49.628;10.850;2023-08-06T10:35:43;4.00;;;2.30;;
44862;SDS011;30597;49.628;10.850;2023-08-06T10:38:10;4.00;;;2.23;;
44862;SDS011;30597;49.628;10.850;2023-08-06T10:40:38;2.70;;;2.00;;
44862;SDS011;30597;49.628;10.850;2023-08-06T10:43:05;2.53;;;2.33;;
44862;SDS011;30597;49.628;10.850;2023-08-06T10:45:36;2.33;;;1.97;;
44862;SDS011;30597;49.628;10.850;2023-08-06T10:48:03;2.93;;;2.00;;
44862;SDS011;30597;49.628;10.850;2023-08-06T10:50:29;2.20;;;1.70;;
44862;SDS011;30597;49.628;10.850;2023-08-06T10:52:56;3.37;;;1.77;;
44862;SDS011;30597;49.628;10.850;2023-08-06T10:55:26;1.97;;;1.73;;
44862;SDS011;30597;49.628;10.850;2023-08-06T10:57:53;2.60;;;2.10;;
44862;SDS011;30597;49.628;10.850;2023-08-06T11:00:20;2.70;;;2.00;;
44862;SDS011;30597;49.628;10.850;2023-08-06T11:02:47;2.77;;;1.73;;
44862;SDS011;30597;49.628;10.850;2023-08-06T11:05:14;2.10;;;1.90;;
44862;SDS011;30597;49.628;10.850;2023-08-06T11:07:40;2.87;;;1.77;;
44862;SDS011;30597;49.628;10.850;2023-08-06T11:10:06;3.50;;;1.80;;
44862;SDS011;30597;49.628;10.850;2023-08-06T11:12:33;2.43;;;1.80;;
44862;SDS011;30597;49.628;10.850;2023-08-06T11:14:59;2.17;;;1.97;;
44862;SDS011;30597;49.628;10.850;2023-08-06T11:17:27;5.70;;;1.63;;
44862;SDS011;30597;49.628;10.850;2023-08-06T11:19:53;3.13;;;2.07;;
44862;SDS011;30597;49.628;10.850;2023-08-06T11:22:20;2.10;;;1.73;;
44862;SDS011;30597;49.628;10.850;2023-08-06T11:24:46;2.70;;;1.97;;
44862;SDS011;30597;49.628;10.850;2023-08-06T11:27:13;4.70;;;1.80;;
44862;SDS011;30597;49.628;10.850;2023-08-06T11:29:40;2.77;;;1.70;;
44862;SDS011;30597;49.628;10.850;2023-08-06T11:32:07;2.17;;;1.60;;
44862;SDS011;30597;49.628;10.850;2023-08-06T11:34:33;2.67;;;1.63;;
44862;SDS011;30597;49.628;10.850;2023-08-06T11:36:59;3.40;;;1.80;;
44862;SDS011;30597;49.628;10.850;2023-08-06T11:39:25;2.67;;;1.40;;
44862;SDS011;30597;49.628;10.850;2023-08-06T11:41:51;1.70;;;1.50;;
44862;SDS011;30597;49.628;10.850;2023-08-06T11:44:18;2.23;;;2.03;;
44862;SDS011;30597;49.628;10.850;2023-08-06T11:46:54;1.87;;;1.57;;
44862;SDS011;30597;49.628;10.850;2023-08-06T11:49:36;2.57;;;1.77;;
44862;SDS011;30597;49.628;10.850;2023-08-06T11:52:14;2.40;;;1.37;;
44862;SDS011;30597;49.628;10.850;2023-08-06T11:55:08;1.63;;;1.47;;
44862;SDS011;30597;49.628;10.850;2023-08-06T11:57:39;1.80;;;1.57;;
44862;SDS011;30597;49.628;10.850;2023-08-06T12:02:34;2.60;;;1.50;;
44862;SDS011;30597;49.628;10.850;2023-08-06T12:07:41;4.60;;;1.73;;
44862;SDS011;30597;49.628;10.850;2023-08-06T12:10:10;2.40;;;1.60;;
44862;SDS011;30597;49.628;10.850;2023-08-06T12:12:36;3.00;;;2.33;;
44862;SDS011;30597;49.628;10.850;2023-08-06T12:15:03;4.80;;;2.10;;
44862;SDS011;30597;49.628;10.850;2023-08-06T12:17:31;3.60;;;2.10;;
44862;SDS011;30597;49.628;10.850;2023-08-06T12:19:56;3.83;;;1.80;;
44862;SDS011;30597;49.628;10.850;2023-08-06T12:22:22;3.00;;;2.13;;
44862;SDS011;30597;49.628;10.850;2023-08-06T12:24:48;6.10;;;2.47;;
44862;SDS011;30597;49.628;10.850;2023-08-06T12:27:14;3.67;;;2.70;;
44862;SDS011;30597;49.628;10.850;2023-08-06T12:29:45;4.57;;;2.83;;
44862;SDS011;30597;49.628;10.850;2023-08-06T12:32:12;3.33;;;2.50;;
44862;SDS011;30597;49.628;10.850;2023-08-06T12:34:40;4.27;;;2.50;;
44862;SDS011;30597;49.628;10.850;2023-08-06T12:37:06;2.77;;;2.33;;
44862;SDS011;30597;49.628;10.850;2023-08-06T12:39:33;3.17;;;2.00;;
44862;SDS011;30597;49.628;10.850;2023-08-06T12:42:00;5.87;;;2.70;;
44862;SDS011;30597;49.628;10.850;2023-08-06T12:44:26;3.60;;;2.43;;
44862;SDS011;30597;49.628;10.850;2023-08-06T12:46:52;6.70;;;2.90;;
44862;SDS011;30597;49.628;10.850;2023-08-06T12:49:19;4.63;;;3.03;;
44862;SDS011;30597;49.628;10.850;2023-08-06T12:51:48;5.63;;;2.93;;
44862;SDS011;30597;49.628;10.850;2023-08-06T12:54:14;2.63;;;2.43;;
44862;SDS011;30597;49.628;10.850;2023-08-06T12:56:41;3.90;;;2.90;;
44862;SDS011;30597;49.628;10.850;2023-08-06T12:59:10;7.87;;;3.30;;
44862;SDS011;30597;49.628;10.850;2023-08-06T13:01:36;3.60;;;3.20;;
44862;SDS011;30597;49.628;10.850;2023-08-06T13:04:02;4.00;;;2.50;;
44862;SDS011;30597;49.628;10.850;2023-08-06T13:06:29;3.20;;;2.60;;
44862;SDS011;30597;49.628;10.850;2023-08-06T13:08:55;3.57;;;2.70;;
44862;SDS011;30597;49.628;10.850;2023-08-06T13:11:21;4.70;;;2.60;;
44862;SDS011;30597;49.628;10.850;2023-08-06T13:13:47;4.23;;;2.90;;
44862;SDS011;30597;49.628;10.850;2023-08-06T13:16:13;4.80;;;3.40;;
44862;SDS011;30597;49.628;10.850;2023-08-06T13:18:39;5.30;;;3.40;;
44862;SDS011;30597;49.628;10.850;2023-08-06T13:21:04;5.30;;;3.37;;
44862;SDS011;30597;49.628;10.850;2023-08-06T13:23:30;4.63;;;3.17;;
44862;SDS011;30597;49.628;10.850;2023-08-06T13:25:56;5.23;;;3.13;;
44862;SDS011;30597;49.628;10.850;2023-08-06T13:28:21;7.70;;;3.37;;
44862;SDS011;30597;49.628;10.850;2023-08-06T13:30:47;9.40;;;3.93;;
44862;SDS011;30597;49.628;10.850;2023-08-06T13:33:12;7.20;;;3.40;;
44862;SDS011;30597;49.628;10.850;2023-08-06T13:35:38;7.80;;;4.07;;
44862;SDS011;30597;49.628;10.850;2023-08-06T13:38:04;6.70;;;3.50;;
44862;SDS011;30597;49.628;10.850;2023-08-06T13:40:31;6.00;;;4.07;;
44862;SDS011;30597;49.628;10.850;2023-08-06T13:42:58;5.83;;;3.80;;
44862;SDS011;30597;49.628;10.850;2023-08-06T13:45:23;6.33;;;3.03;;
44862;SDS011;30597;49.628;10.850;2023-08-06T13:47:49;5.87;;;3.37;;
44862;SDS011;30597;49.628;10.850;2023-08-06T13:50:14;4.37;;;3.17;;
44862;SDS011;30597;49.628;10.850;2023-08-06T13:52:40;4.60;;;3.70;;
44862;SDS011;30597;49.628;10.850;2023-08-06T13:55:06;6.10;;;4.00;;
44862;SDS011;30597;49.628;10.850;2023-08-06T13:57:32;10.17;;;3.87;;
44862;SDS011;30597;49.628;10.850;2023-08-06T13:59:59;7.30;;;3.53;;
44862;SDS011;30597;49.628;10.850;2023-08-06T14:02:24;3.50;;;2.93;;
44862;SDS011;30597;49.628;10.850;2023-08-06T14:04:51;5.70;;;3.30;;
44862;SDS011;30597;49.628;10.850;2023-08-06T14:07:17;5.47;;;2.70;;
44862;SDS011;30597;49.628;10.850;2023-08-06T14:09:43;3.83;;;2.80;;
44862;SDS011;30597;49.628;10.850;2023-08-06T14:12:09;5.60;;;2.93;;
44862;SDS011;30597;49.628;10.850;2023-08-06T14:14:34;5.43;;;3.20;;
44862;SDS011;30597;49.628;10.850;2023-08-06T14:17:00;5.23;;;2.90;;
44862;SDS011;30597;49.628;10.850;2023-08-06T14:19:26;4.67;;;2.73;;
44862;SDS011;30597;49.628;10.850;2023-08-06T14:21:52;5.20;;;3.30;;
44862;SDS011;30597;49.628;10.850;2023-08-06T14:24:18;5.00;;;3.07;;
44862;SDS011;30597;49.628;10.850;2023-08-06T14:26:44;7.10;;;3.40;;
44862;SDS011;30597;49.628;10.850;2023-08-06T14:29:09;3.30;;;2.57;;
44862;SDS011;30597;49.628;10.850;2023-08-06T14:31:35;5.30;;;2.73;;
44862;SDS011;30597;49.628;10.850;2023-08-06T14:34:01;4.40;;;2.70;;
44862;SDS011;30597;49.628;10.850;2023-08-06T14:36:27;3.40;;;3.07;;
44862;SDS011;30597;49.628;10.850;2023-08-06T14:38:52;3.70;;;2.83;;
44862;SDS011;30597;49.628;10.850;2023-08-06T14:41:18;6.03;;;3.40;;
44862;SDS011;30597;49.628;10.850;2023-08-06T14:43:43;4.93;;;3.33;;
44862;SDS011;30597;49.628;10.850;2023-08-06T14:46:09;3.87;;;3.20;;
44862;SDS011;30597;49.628;10.850;2023-08-06T14:48:34;4.67;;;3.20;;
44862;SDS011;30597;49.628;10.850;2023-08-06T14:51:00;3.77;;;2.80;;
44862;SDS011;30597;49.628;10.850;2023-08-06T14:53:26;5.43;;;3.60;;
44862;SDS011;30597;49.628;10.850;2023-08-06T14:55:51;3.47;;;2.33;;
44862;SDS011;30597;49.628;10.850;2023-08-06T14:58:17;3.57;;;3.00;;
44862;SDS011;30597;49.628;10.850;2023-08-06T15:00:44;5.77;;;2.70;;
44862;SDS011;30597;49.628;10.850;2023-08-06T15:03:10;3.20;;;2.63;;
44862;SDS011;30597;49.628;10.850;2023-08-06T15:05:36;2.90;;;2.20;;
44862;SDS011;30597;49.628;10.850;2023-08-06T15:08:02;3.23;;;2.60;;
44862;SDS011;30597;49.628;10.850;2023-08-06T15:10:27;3.73;;;2.20;;
44862;SDS011;30597;49.628;10.850;2023-08-06T15:12:53;5.90;;;3.13;;
44862;SDS011;30597;49.628;10.850;2023-08-06T15:15:19;4.63;;;3.00;;
44862;SDS011;30597;49.628;10.850;2023-08-06T15:17:45;5.17;;;3.00;;
44862;SDS011;30597;49.628;10.850;2023-08-06T15:20:11;3.23;;;2.50;;
44862;SDS011;30597;49.628;10.850;2023-08-06T15:22:37;3.50;;;2.47;;
44862;SDS011;30597;49.628;10.850;2023-08-06T15:25:02;2.97;;;2.67;;
44862;SDS011;30597;49.628;10.850;2023-08-06T15:27:29;3.73;;;2.80;;
44862;SDS011;30597;49.628;10.850;2023-08-06T15:29:55;3.60;;;2.17;;
44862;SDS011;30597;49.628;10.850;2023-08-06T15:32:20;4.70;;;2.70;;
44862;SDS011;30597;49.628;10.850;2023-08-06T15:34:47;5.53;;;2.60;;
44862;SDS011;30597;49.628;10.850;2023-08-06T15:37:13;3.83;;;2.37;;
44862;SDS011;30597;49.628;10.850;2023-08-06T15:39:39;3.60;;;2.60;;
44862;SDS011;30597;49.628;10.850;2023-08-06T15:42:05;3.90;;;2.77;;
44862;SDS011;30597;49.628;10.850;2023-08-06T15:44:31;6.10;;;2.57;;
44862;SDS011;30597;49.628;10.850;2023-08-06T15:46:56;6.30;;;2.50;;
44862;SDS011;30597;49.628;10.850;2023-08-06T15:49:22;5.07;;;2.73;;
44862;SDS011;30597;49.628;10.850;2023-08-06T15:51:48;4.53;;;2.60;;
44862;SDS011;30597;49.628;10.850;2023-08-06T15:54:13;4.43;;;2.57;;
44862;SDS011;30597;49.628;10.850;2023-08-06T15:56:39;6.07;;;2.93;;
44862;SDS011;30597;49.628;10.850;2023-08-06T15:59:23;3.50;;;2.70;;